Time;durP1;ratioP1;P1;durP2;ratioP2;P2;SDS_P1;SDS_P2;PMS_P1;PMS_P2;Temp;Humidity;BMP_temperature;BMP_pressure;BME280_temperature;BME280_humidity;BME280_pressure;Samples;Min_cycle;Max_cycle;Signal;HPM_P1;HPM_P2
2021/12/04 00:01:46;;;;;;;10.75;7.97;;;0.30;99.90;;;;;;5052162;28;20025;-92
2021/12/04 00:04:12;;;;;;;14.60;8.35;;;0.30;99.90;;;;;;5039100;28;20035;-92
2021/12/04 00:06:39;;;;;;;8.45;7.18;;;0.30;99.90;;;;;;5041842;28;20119;-92
2021/12/04 00:09:06;;;;;;;10.40;8.23;;;0.40;99.90;;;;;;5035074;28;20048;-92
2021/12/04 00:11:33;;;;;;;10.43;8.43;;;0.40;99.90;;;;;;5044813;28;20036;-91
2021/12/04 00:13:59;;;;;;;10.50;8.10;;;0.40;99.90;;;;;;5049091;28;20032;-91
2021/12/04 00:16:24;;;;;;;10.75;8.30;;;0.40;99.90;;;;;;5037442;28;20021;-91
2021/12/04 00:18:50;;;;;;;9.63;8.63;;;0.50;99.90;;;;;;5033671;28;20040;-92
2021/12/04 00:21:16;;;;;;;9.60;8.60;;;0.50;99.90;;;;;;5034940;28;20777;-92
2021/12/04 00:23:41;;;;;;;12.18;8.48;;;0.50;99.90;;;;;;5028302;28;20378;-91
2021/12/04 00:26:07;;;;;;;10.25;8.93;;;0.50;99.90;;;;;;5022883;28;20102;-91
2021/12/04 00:28:33;;;;;;;12.30;9.20;;;0.50;99.90;;;;;;5064864;28;20042;-91
2021/12/04 00:31:04;;;;;;;12.38;8.98;;;0.50;99.90;;;;;;5031557;28;20040;-92
2021/12/04 00:33:32;;;;;;;;;;;0.40;99.90;;;;;;5052678;28;20048;-92
2021/12/04 00:36:04;;;;;;;10.60;8.10;;;0.50;99.90;;;;;;5070535;28;19904;-91
2021/12/04 00:49:39;;;;;;;11.48;9.05;;;0.40;99.90;;;;;;5033418;28;20079;-91
2021/12/04 00:52:05;;;;;;;12.30;9.20;;;0.40;99.90;;;;;;5014539;28;20037;-92
2021/12/04 00:54:31;;;;;;;9.80;8.63;;;0.40;99.90;;;;;;5032770;28;20489;-92
2021/12/04 00:56:56;;;;;;;12.65;8.93;;;0.40;99.90;;;;;;5035801;28;20472;-92
2021/12/04 00:59:23;;;;;;;11.02;9.02;;;0.30;99.90;;;;;;5038263;28;20024;-92
2021/12/04 01:01:49;;;;;;;13.15;9.32;;;0.30;99.90;;;;;;5035262;28;20063;-92
2021/12/04 01:04:17;;;;;;;9.85;8.55;;;0.30;99.90;;;;;;5033739;28;20043;-92
2021/12/04 01:06:43;;;;;;;15.70;11.10;;;0.30;99.90;;;;;;5039206;28;20071;-92
2021/12/04 01:09:11;;;;;;;12.07;9.48;;;0.30;99.90;;;;;;5041227;28;20056;-92
2021/12/04 01:11:39;;;;;;;12.25;8.32;;;0.30;99.90;;;;;;5034271;28;20033;-92
2021/12/04 01:14:06;;;;;;;10.57;9.05;;;0.30;99.90;;;;;;5038137;28;20078;-90
2021/12/04 01:16:31;;;;;;;16.52;9.45;;;0.30;99.90;;;;;;5052353;28;20048;-91
2021/12/04 01:18:57;;;;;;;13.82;9.85;;;0.40;99.90;;;;;;5028736;28;20063;-92
2021/12/04 01:21:23;;;;;;;10.32;9.27;;;0.40;99.90;;;;;;5038757;28;20095;-92
2021/12/04 01:23:48;;;;;;;9.45;8.52;;;0.30;99.90;;;;;;5038314;28;20021;-92
2021/12/04 01:26:14;;;;;;;9.75;8.85;;;0.40;99.90;;;;;;5052094;28;20013;-92
2021/12/04 01:28:40;;;;;;;11.55;9.43;;;0.40;99.90;;;;;;5037797;28;20035;-92
2021/12/04 01:31:06;;;;;;;10.38;8.18;;;0.30;99.90;;;;;;5043915;28;20041;-90
2021/12/04 01:33:32;;;;;;;13.30;9.98;;;0.40;99.90;;;;;;5029346;28;20037;-91
2021/12/04 01:35:58;;;;;;;10.38;9.27;;;0.40;99.90;;;;;;5019298;28;20029;-93
2021/12/04 01:38:24;;;;;;;12.13;9.30;;;0.40;99.90;;;;;;5033434;28;20031;-92
2021/12/04 01:40:50;;;;;;;11.27;8.88;;;0.40;99.90;;;;;;5033650;28;20485;-92
2021/12/04 01:43:16;;;;;;;12.38;8.43;;;0.40;99.90;;;;;;5033960;28;20079;-91
2021/12/04 01:45:42;;;;;;;13.73;8.95;;;0.40;99.90;;;;;;5033720;28;20054;-92
2021/12/04 01:48:07;;;;;;;10.93;9.38;;;0.40;99.90;;;;;;5042555;28;20028;-91
2021/12/04 01:50:34;;;;;;;11.98;7.80;;;0.40;99.90;;;;;;5041417;28;20550;-92
2021/12/04 01:53:01;;;;;;;10.85;9.05;;;0.40;99.90;;;;;;5057136;28;20116;-92
2021/12/04 01:55:28;;;;;;;11.32;9.70;;;0.30;99.90;;;;;;5041255;28;20033;-91
2021/12/04 01:57:54;;;;;;;11.45;8.90;;;0.30;99.90;;;;;;5033317;28;20118;-91
2021/12/04 02:00:21;;;;;;;10.68;9.07;;;0.40;99.90;;;;;;5033365;28;20037;-92
2021/12/04 02:02:47;;;;;;;13.15;10.30;;;0.40;99.90;;;;;;5051365;28;20021;-92
2021/12/04 02:05:12;;;;;;;10.70;8.80;;;0.40;99.90;;;;;;5036040;28;20027;-92
2021/12/04 02:07:38;;;;;;;14.60;8.88;;;0.40;99.90;;;;;;5023321;28;20029;-91
2021/12/04 02:10:05;;;;;;;11.95;9.98;;;0.40;99.90;;;;;;5051657;28;20512;-91
2021/12/04 02:12:31;;;;;;;8.82;7.72;;;0.40;99.90;;;;;;5033306;28;20044;-91
2021/12/04 02:14:57;;;;;;;14.13;9.02;;;0.40;99.90;;;;;;5031704;28;20401;-91
2021/12/04 02:17:22;;;;;;;12.68;8.95;;;0.40;99.90;;;;;;5033195;28;20087;-91
2021/12/04 02:19:48;;;;;;;10.43;8.07;;;0.40;99.90;;;;;;5056149;28;20107;-91
2021/12/04 02:22:15;;;;;;;13.48;9.63;;;0.40;99.90;;;;;;5033527;28;20039;-91
2021/12/04 02:24:41;;;;;;;12.18;9.43;;;0.40;99.90;;;;;;5031044;28;20026;-91
2021/12/04 02:27:07;;;;;;;10.45;9.10;;;0.40;99.90;;;;;;5040856;28;20025;-92
2021/12/04 02:29:32;;;;;;;14.80;9.13;;;0.40;99.90;;;;;;5032996;28;20501;-91
2021/12/04 02:32:01;;;;;;;12.77;10.65;;;0.40;99.90;;;;;;5029873;28;20067;-91
2021/12/04 02:34:29;;;;;;;12.55;9.25;;;0.40;99.90;;;;;;5034345;28;20116;-91
2021/12/04 02:36:57;;;;;;;13.15;10.23;;;0.40;99.90;;;;;;5029560;28;20029;-90
2021/12/04 02:39:30;;;;;;;14.48;9.77;;;0.40;99.90;;;;;;5038436;28;20032;-91
2021/12/04 02:41:56;;;;;;;13.25;10.38;;;0.40;99.90;;;;;;5046948;28;20493;-91
2021/12/04 02:44:32;;;;;;;11.82;10.50;;;0.30;99.90;;;;;;5014893;28;20032;-91
2021/12/04 02:46:58;;;;;;;13.25;11.25;;;0.30;99.90;;;;;;5034436;28;20022;-92
2021/12/04 02:49:23;;;;;;;16.70;11.93;;;0.30;99.90;;;;;;5037699;28;20025;-91
2021/12/04 02:51:49;;;;;;;17.98;12.93;;;0.30;99.90;;;;;;5036021;28;20997;-92
2021/12/04 02:54:17;;;;;;;15.88;11.40;;;0.20;99.90;;;;;;5039362;28;20041;-92
2021/12/04 02:56:44;;;;;;;19.27;12.73;;;0.20;99.90;;;;;;5037738;28;20076;-92
2021/12/04 02:59:11;;;;;;;18.33;12.05;;;0.20;99.90;;;;;;5039005;28;20025;-91
2021/12/04 03:01:38;;;;;;;19.27;11.63;;;0.20;99.90;;;;;;5048430;28;20125;-93
2021/12/04 03:04:09;;;;;;;15.57;12.20;;;0.20;99.90;;;;;;5052250;28;20095;-92
2021/12/04 03:06:44;;;;;;;22.63;12.43;;;0.10;99.90;;;;;;5038677;28;20053;-93
2021/12/04 03:09:10;;;;;;;20.02;13.40;;;0.10;99.90;;;;;;5036055;28;20035;-91
2021/12/04 03:11:36;;;;;;;17.15;12.73;;;0.10;99.90;;;;;;5040520;28;20092;-92
2021/12/04 03:14:03;;;;;;;16.58;12.85;;;0.00;99.90;;;;;;5041532;28;20036;-91
2021/12/04 03:16:28;;;;;;;19.95;14.05;;;0.00;99.90;;;;;;5028199;28;20036;-92
2021/12/04 03:18:54;;;;;;;22.92;14.88;;;0.00;99.90;;;;;;5036528;28;20029;-92
2021/12/04 03:21:20;;;;;;;24.33;14.20;;;0.00;99.90;;;;;;5041740;28;20047;-92
2021/12/04 03:23:58;;;;;;;20.83;15.10;;;0.00;99.90;;;;;;5041965;28;20021;-91
2021/12/04 03:26:25;;;;;;;20.42;12.45;;;0.00;99.90;;;;;;5032193;28;20021;-92
2021/12/04 03:28:56;;;;;;;24.13;14.80;;;0.00;99.90;;;;;;5037413;28;20052;-91
2021/12/04 03:42:11;;;;;;;26.20;15.55;;;-0.10;99.90;;;;;;5054017;28;20027;-92
2021/12/04 03:44:38;;;;;;;28.83;16.13;;;-0.10;99.90;;;;;;5037079;28;20029;-92
2021/12/04 03:47:04;;;;;;;31.08;16.60;;;-0.20;99.90;;;;;;5036155;28;20382;-93
2021/12/04 03:49:30;;;;;;;31.83;17.52;;;-0.20;99.90;;;;;;5036923;28;20075;-93
2021/12/04 03:51:56;;;;;;;27.42;16.60;;;-0.20;99.90;;;;;;5035802;28;20041;-91
2021/12/04 03:54:22;;;;;;;24.10;15.98;;;-0.20;99.90;;;;;;5036277;28;20392;-91
2021/12/04 03:56:47;;;;;;;30.75;17.60;;;-0.20;99.90;;;;;;5053481;28;20024;-93
2021/12/04 03:59:13;;;;;;;21.08;13.88;;;-0.20;99.90;;;;;;5035754;28;20112;-92
2021/12/04 04:01:38;;;;;;;27.27;15.63;;;-0.20;99.90;;;;;;5039047;28;20031;-93
2021/12/04 04:04:04;;;;;;;29.48;16.63;;;-0.20;99.90;;;;;;5055771;28;20400;-93
2021/12/04 04:06:30;;;;;;;26.55;15.35;;;-0.20;99.90;;;;;;5061304;28;20075;-93
2021/12/04 04:08:55;;;;;;;30.60;15.50;;;-0.20;99.90;;;;;;5035597;28;20028;-93
2021/12/04 04:11:21;;;;;;;27.60;16.05;;;-0.20;99.90;;;;;;5035498;28;20386;-92
2021/12/04 04:13:47;;;;;;;29.90;17.08;;;-0.20;99.90;;;;;;5036287;28;20025;-92
2021/12/04 04:16:13;;;;;;;28.65;15.80;;;-0.20;99.90;;;;;;5041955;28;20033;-92
2021/12/04 04:18:38;;;;;;;34.72;17.17;;;-0.20;99.90;;;;;;5048563;28;20048;-92
2021/12/04 04:21:04;;;;;;;38.08;19.10;;;-0.20;99.90;;;;;;5048773;28;20029;-91
2021/12/04 04:23:30;;;;;;;32.85;19.35;;;-0.20;99.90;;;;;;5037862;28;20071;-93
2021/12/04 04:25:56;;;;;;;29.55;16.98;;;-0.30;99.90;;;;;;5035568;28;20057;-92
2021/12/04 04:28:21;;;;;;;27.38;17.08;;;-0.20;99.90;;;;;;5035402;28;20020;-92
2021/12/04 04:30:47;;;;;;;34.25;19.10;;;-0.20;99.90;;;;;;5042086;28;20063;-93
2021/12/04 04:33:14;;;;;;;35.33;19.20;;;-0.30;99.90;;;;;;5037396;28;20021;-93
2021/12/04 04:35:43;;;;;;;38.80;19.10;;;-0.20;99.90;;;;;;5026615;28;20389;-93
2021/12/04 05:00:19;;;;;;;35.67;20.52;;;-0.30;99.90;;;;;;5068868;28;20104;-93
2021/12/04 05:11:10;;;;;;;36.70;19.67;;;-0.30;99.90;;;;;;5055745;28;20384;-93
2021/12/04 05:13:38;;;;;;;36.15;19.15;;;-0.30;99.90;;;;;;5059479;28;20124;-93
2021/12/04 05:16:12;;;;;;;38.97;20.98;;;-0.20;99.90;;;;;;5034496;28;20044;-93
2021/12/04 05:18:42;;;;;;;37.35;19.83;;;-0.30;99.90;;;;;;5032747;28;20043;-93
2021/12/04 05:21:12;;;;;;;41.88;20.42;;;-0.20;99.90;;;;;;5034069;28;20032;-92
2021/12/04 05:23:45;;;;;;;40.10;20.50;;;-0.20;99.90;;;;;;5034209;28;20037;-93
2021/12/04 05:26:18;;;;;;;35.63;19.52;;;-0.30;99.90;;;;;;5030903;28;20025;-93
2021/12/04 05:28:44;;;;;;;38.28;19.20;;;-0.20;99.90;;;;;;5034799;28;20067;-93
2021/12/04 05:31:10;;;;;;;29.60;18.30;;;-0.20;99.90;;;;;;5038776;28;20028;-93
2021/12/04 05:33:37;;;;;;;38.42;17.95;;;-0.20;99.90;;;;;;5038863;28;20134;-93
2021/12/04 05:36:03;;;;;;;30.30;17.40;;;-0.20;99.90;;;;;;5029554;28;20048;-91
2021/12/04 05:38:29;;;;;;;28.38;17.00;;;-0.20;99.90;;;;;;5033538;28;20028;-92
2021/12/04 05:40:58;;;;;;;34.20;17.10;;;-0.20;99.90;;;;;;5035062;28;20025;-93
2021/12/04 05:43:25;;;;;;;32.88;18.30;;;-0.20;99.90;;;;;;5038330;28;20040;-93
2021/12/04 05:46:17;;;;;;;27.50;17.52;;;-0.20;99.90;;;;;;5038717;28;20033;-92
2021/12/04 05:48:54;;;;;;;31.00;17.42;;;-0.20;99.90;;;;;;5033838;28;20025;-92
2021/12/04 05:51:51;;;;;;;31.95;17.55;;;-0.20;99.90;;;;;;5033256;28;20029;-93
2021/12/04 05:54:19;;;;;;;29.55;18.15;;;-0.20;99.90;;;;;;5050994;28;20025;-93
2021/12/04 05:56:45;;;;;;;32.08;17.02;;;-0.20;99.90;;;;;;5054336;28;20067;-93
2021/12/04 05:59:10;;;;;;;33.30;17.70;;;-0.10;99.90;;;;;;5037234;28;20156;-92
2021/12/04 06:01:36;;;;;;;32.25;17.80;;;-0.20;99.90;;;;;;5028184;28;20116;-93
2021/12/04 06:04:02;;;;;;;37.85;19.13;;;-0.20;99.90;;;;;;5042541;28;20031;-92
2021/12/04 06:06:28;;;;;;;29.02;17.98;;;-0.20;99.90;;;;;;5039219;28;20028;-92
2021/12/04 06:08:54;;;;;;;33.83;19.23;;;-0.20;99.90;;;;;;5043767;28;20388;-92
2021/12/04 06:11:19;;;;;;;33.33;18.85;;;-0.20;99.90;;;;;;5044196;28;20108;-91
2021/12/04 06:13:46;;;;;;;37.70;20.02;;;-0.20;99.90;;;;;;5034223;28;20131;-93
2021/12/04 06:16:13;;;;;;;29.85;18.08;;;-0.20;99.90;;;;;;5037060;28;20033;-93
2021/12/04 06:18:39;;;;;;;30.30;18.00;;;-0.20;99.90;;;;;;5032608;28;20071;-92
2021/12/04 06:23:48;;;;;;;31.98;17.52;;;-0.20;99.90;;;;;;5061515;28;20051;-92
2021/12/04 06:26:14;;;;;;;29.58;18.25;;;-0.20;99.90;;;;;;5037230;28;20118;-91
2021/12/04 06:28:40;;;;;;;36.22;20.23;;;-0.20;99.90;;;;;;5038677;28;20023;-93
2021/12/04 06:31:08;;;;;;;34.47;19.33;;;-0.20;99.90;;;;;;5019799;28;20053;-92
2021/12/04 06:33:35;;;;;;;37.08;19.00;;;-0.10;99.90;;;;;;5035750;28;20401;-92
2021/12/04 06:36:01;;;;;;;33.03;18.42;;;-0.20;99.90;;;;;;5034625;28;20028;-91
2021/12/04 06:38:27;;;;;;;32.35;18.90;;;-0.20;99.90;;;;;;5039394;28;20017;-92
2021/12/04 06:40:54;;;;;;;33.58;18.25;;;-0.20;99.90;;;;;;5058752;28;20082;-92
2021/12/04 06:43:21;;;;;;;37.03;18.92;;;-0.20;99.90;;;;;;5026549;28;20025;-91
2021/12/04 06:45:57;;;;;;;35.95;20.27;;;-0.20;99.90;;;;;;5033969;28;20056;-92
2021/12/04 06:48:25;;;;;;;32.97;19.48;;;-0.20;99.90;;;;;;5038566;28;20541;-92
2021/12/04 06:51:13;;;;;;;31.35;18.67;;;-0.20;99.90;;;;;;5044793;28;20033;-92
2021/12/04 06:53:47;;;;;;;32.00;18.48;;;-0.20;99.90;;;;;;5029399;28;20036;-93
2021/12/04 06:56:13;;;;;;;31.58;18.85;;;-0.10;99.90;;;;;;5036759;28;20027;-92
2021/12/04 06:58:39;;;;;;;34.55;19.05;;;-0.10;99.90;;;;;;5033879;28;20683;-93
2021/12/04 07:01:07;;;;;;;26.33;17.13;;;-0.20;99.90;;;;;;5036575;28;20489;-91
2021/12/04 07:03:33;;;;;;;32.25;17.92;;;-0.10;99.90;;;;;;5032608;28;20289;-92
2021/12/04 07:05:59;;;;;;;27.77;17.77;;;-0.10;99.90;;;;;;5037008;28;20033;-92
2021/12/04 07:08:25;;;;;;;31.40;17.90;;;-0.10;99.90;;;;;;5046497;28;20025;-92
2021/12/04 07:10:50;;;;;;;27.15;17.17;;;-0.10;99.90;;;;;;5041698;28;20048;-92
2021/12/04 07:13:17;;;;;;;24.40;17.13;;;-0.10;99.90;;;;;;5036721;28;20027;-93
2021/12/04 07:15:45;;;;;;;24.60;17.02;;;-0.10;99.90;;;;;;5026067;28;20029;-92
2021/12/04 07:18:11;;;;;;;23.75;16.45;;;-0.10;99.90;;;;;;5029491;28;20040;-92
2021/12/04 07:20:37;;;;;;;25.15;16.33;;;0.00;99.90;;;;;;5036214;28;20025;-92
2021/12/04 07:23:03;;;;;;;23.63;16.65;;;0.00;99.90;;;;;;5033963;28;20466;-92
2021/12/04 07:25:30;;;;;;;25.48;15.93;;;0.00;99.90;;;;;;5043309;28;20023;-92
2021/12/04 07:27:56;;;;;;;20.52;14.27;;;0.00;99.90;;;;;;5052098;28;20052;-92
2021/12/04 07:30:24;;;;;;;19.25;14.30;;;0.00;99.90;;;;;;5035941;28;20493;-92
2021/12/04 07:32:51;;;;;;;18.52;13.63;;;0.10;99.90;;;;;;5035937;28;20025;-93
2021/12/04 07:35:17;;;;;;;18.20;13.52;;;0.00;99.90;;;;;;5035436;28;20405;-91
2021/12/04 07:37:43;;;;;;;17.52;13.77;;;0.10;99.90;;;;;;5042018;28;20025;-92
2021/12/04 07:40:10;;;;;;;19.20;13.30;;;0.10;99.90;;;;;;5036070;28;20036;-92
2021/12/04 07:42:36;;;;;;;14.52;12.93;;;0.10;99.90;;;;;;5025524;28;20511;-92
2021/12/04 07:45:03;;;;;;;15.68;12.65;;;0.10;99.90;;;;;;5028363;28;20144;-92
2021/12/04 07:47:28;;;;;;;17.65;14.50;;;0.10;99.90;;;;;;5034646;28;20067;-94
2021/12/04 07:49:56;;;;;;;15.32;13.05;;;0.10;99.90;;;;;;5045761;28;20049;-92
2021/12/04 07:52:22;;;;;;;17.30;12.88;;;0.10;99.90;;;;;;5036243;28;20035;-93
2021/12/04 07:54:49;;;;;;;15.40;11.63;;;0.20;99.90;;;;;;5035566;28;20021;-93
2021/12/04 07:57:15;;;;;;;13.32;11.05;;;0.20;99.90;;;;;;5036012;28;20122;-91
2021/12/04 07:59:42;;;;;;;13.45;11.70;;;0.30;99.90;;;;;;5037719;28;20037;-92
2021/12/04 08:02:07;;;;;;;12.95;11.57;;;0.30;99.90;;;;;;5037292;28;20537;-91
2021/12/04 08:04:33;;;;;;;12.95;11.55;;;0.30;99.90;;;;;;5037245;28;20124;-93
2021/12/04 08:06:59;;;;;;;13.13;11.70;;;0.40;99.90;;;;;;5040188;28;20033;-93
2021/12/04 08:09:24;;;;;;;12.80;11.45;;;0.30;99.90;;;;;;5035394;28;20693;-92
2021/12/04 08:11:50;;;;;;;14.57;10.70;;;0.30;99.90;;;;;;5035423;28;20025;-93
2021/12/04 08:14:17;;;;;;;13.90;10.98;;;0.40;99.90;;;;;;5035821;28;20108;-94
2021/12/04 08:16:44;;;;;;;15.23;10.40;;;0.40;99.90;;;;;;5035718;28;20029;-92
2021/12/04 08:19:09;;;;;;;12.25;10.82;;;0.40;99.90;;;;;;5031456;28;20033;-93
2021/12/04 08:21:35;;;;;;;12.30;10.30;;;0.50;99.90;;;;;;5035098;28;20075;-92
2021/12/04 08:24:02;;;;;;;12.60;9.32;;;0.50;99.90;;;;;;5041412;28;20033;-92
2021/12/04 08:26:27;;;;;;;12.82;10.30;;;0.50;99.90;;;;;;5036246;28;20025;-93
2021/12/04 08:28:53;;;;;;;12.25;11.02;;;0.60;99.90;;;;;;5038373;28;20020;-93
2021/12/04 08:31:19;;;;;;;13.02;10.30;;;0.60;99.90;;;;;;5028741;28;20397;-93
2021/12/04 08:33:45;;;;;;;11.65;10.45;;;0.70;99.90;;;;;;5021637;28;20025;-93
2021/12/04 08:36:11;;;;;;;11.30;10.20;;;0.70;99.90;;;;;;5028297;28;20060;-91
2021/12/04 08:38:37;;;;;;;10.90;9.65;;;0.70;99.90;;;;;;5069071;28;20023;-93
2021/12/04 08:41:05;;;;;;;11.25;9.80;;;0.80;99.90;;;;;;5058523;28;20028;-92
2021/12/04 08:43:31;;;;;;;13.00;10.13;;;0.70;99.90;;;;;;5034839;28;20566;-91
2021/12/04 08:46:00;;;;;;;11.77;10.63;;;0.80;99.90;;;;;;5043241;28;20045;-92
2021/12/04 08:48:27;;;;;;;13.27;10.15;;;0.80;99.90;;;;;;5067857;28;20033;-92
2021/12/04 08:50:53;;;;;;;13.32;10.60;;;0.80;99.90;;;;;;5065165;28;20035;-92
2021/12/04 08:53:18;;;;;;;11.93;10.63;;;0.90;99.90;;;;;;5035141;28;20118;-92
2021/12/04 08:55:45;;;;;;;13.85;10.77;;;0.90;99.90;;;;;;5041394;28;20494;-93
2021/12/04 08:58:12;;;;;;;12.20;10.80;;;1.00;99.90;;;;;;5035960;28;20029;-92
2021/12/04 09:01:05;;;;;;;14.18;10.88;;;0.90;99.90;;;;;;5035702;28;20033;-93
2021/12/04 09:03:37;;;;;;;15.00;10.63;;;1.00;99.90;;;;;;5027506;28;20033;-92
2021/12/04 09:06:05;;;;;;;11.63;9.80;;;1.00;99.90;;;;;;5048398;28;20028;-92
2021/12/04 09:08:31;;;;;;;10.43;9.40;;;1.00;99.90;;;;;;5041679;28;20374;-92
2021/12/04 09:11:00;;;;;;;10.55;9.45;;;1.10;99.90;;;;;;5047499;28;20507;-92
2021/12/04 09:13:28;;;;;;;11.60;9.82;;;1.10;99.90;;;;;;5035361;28;20017;-92
2021/12/04 09:15:57;;;;;;;11.18;9.98;;;1.20;99.90;;;;;;5033989;28;20401;-92
2021/12/04 09:18:24;;;;;;;12.18;10.90;;;1.20;99.90;;;;;;5056449;28;20025;-92
2021/12/04 09:20:50;;;;;;;10.90;9.82;;;1.30;99.90;;;;;;5033826;28;20558;-91
2021/12/04 09:23:18;;;;;;;11.50;9.98;;;1.30;99.90;;;;;;5034185;28;20032;-92
2021/12/04 09:25:53;;;;;;;11.15;9.35;;;1.30;99.90;;;;;;5031748;28;20565;-92
2021/12/04 09:28:25;;;;;;;11.15;9.95;;;1.30;99.90;;;;;;5038629;28;20108;-92
2021/12/04 10:00:11;;;;;;;12.35;9.27;;;1.40;99.90;;;;;;5052100;28;20515;-90
2021/12/04 10:19:19;;;;;;;9.45;7.80;;;1.70;99.90;;;;;;5049985;28;20107;-91
2021/12/04 10:22:05;;;;;;;9.82;8.82;;;1.80;99.90;;;;;;5049153;28;20074;-92
2021/12/04 10:32:55;;;;;;;10.15;9.18;;;2.10;99.90;;;;;;5052672;28;20070;-90
2021/12/04 10:35:23;;;;;;;9.82;8.75;;;2.10;99.90;;;;;;5040500;28;20033;-91
2021/12/04 10:37:54;;;;;;;10.07;9.07;;;2.10;99.90;;;;;;5033135;28;20443;-91
2021/12/04 10:40:22;;;;;;;8.98;8.15;;;2.20;99.90;;;;;;5030501;28;20021;-90
2021/12/04 10:43:00;;;;;;;10.85;9.07;;;2.20;99.90;;;;;;5041734;28;20030;-92
2021/12/04 10:45:39;;;;;;;9.13;8.23;;;2.20;99.90;;;;;;5034249;28;20025;-91
2021/12/04 10:48:10;;;;;;;10.82;9.30;;;2.10;99.90;;;;;;5040240;28;20050;-91
2021/12/04 10:53:12;;;;;;;10.75;8.60;;;2.00;99.90;;;;;;5051343;28;19909;-91
2021/12/04 10:55:56;;;;;;;;;;;2.00;99.90;;;;;;5049798;28;20014;-91
2021/12/04 11:40:53;;;;;;;10.95;9.23;;;2.20;99.90;;;;;;5057586;28;20037;-90
2021/12/04 11:43:07;;;;;;;;;;;2.20;99.90;;;;;;5054517;28;20064;-91
2021/12/04 11:48:31;;;;;;;10.70;9.65;;;2.20;99.90;;;;;;5042501;28;20030;-93
2021/12/04 11:50:57;;;;;;;9.32;8.43;;;2.20;99.90;;;;;;5045648;28;20029;-91
2021/12/04 11:53:27;;;;;;;8.70;7.93;;;2.30;99.90;;;;;;5036689;28;20033;-91
2021/12/04 11:55:53;;;;;;;10.48;8.98;;;2.20;99.90;;;;;;5054050;28;20017;-92
2021/12/04 11:58:31;;;;;;;9.32;8.43;;;2.20;99.90;;;;;;5036220;28;20408;-92
2021/12/04 12:01:06;;;;;;;9.57;8.68;;;2.20;99.90;;;;;;5035168;28;20042;-92
2021/12/04 12:03:34;;;;;;;10.32;9.35;;;2.20;99.90;;;;;;5038182;28;20049;-93
2021/12/04 12:06:06;;;;;;;9.38;8.35;;;2.20;99.90;;;;;;5032937;28;20059;-94
2021/12/04 12:08:33;;;;;;;10.20;9.00;;;2.20;99.90;;;;;;5031908;28;20068;-93
2021/12/04 12:11:09;;;;;;;9.43;8.52;;;2.20;99.90;;;;;;5035747;28;20036;-92
2021/12/04 12:13:40;;;;;;;9.27;8.38;;;2.20;99.90;;;;;;5042157;28;20060;-94
2021/12/04 12:16:10;;;;;;;9.85;8.90;;;2.20;99.90;;;;;;5027155;28;20028;-92
2021/12/04 12:18:43;;;;;;;11.43;9.55;;;2.20;99.90;;;;;;5045569;28;20523;-93
2021/12/04 12:21:11;;;;;;;9.63;8.70;;;2.10;99.90;;;;;;5036354;28;20109;-93
2021/12/04 12:24:11;;;;;;;9.68;8.50;;;2.10;99.90;;;;;;5055753;28;20253;-93
2021/12/04 12:27:21;;;;;;;8.90;8.00;;;2.10;99.90;;;;;;5054411;28;20029;-92
2021/12/04 12:39:05;;;;;;;10.50;9.10;;;2.10;99.90;;;;;;5056305;28;20048;-92
2021/12/04 12:41:41;;;;;;;9.38;8.43;;;2.20;99.90;;;;;;4970354;28;20114;-92
2021/12/04 12:44:13;;;;;;;11.85;9.23;;;2.10;99.90;;;;;;4958304;28;20166;-93
2021/12/04 12:46:42;;;;;;;10.60;9.35;;;2.10;99.90;;;;;;5019844;28;20045;-93
2021/12/04 12:49:28;;;;;;;9.80;8.90;;;2.10;99.90;;;;;;5037271;28;20044;-92
2021/12/04 12:52:02;;;;;;;9.43;8.52;;;2.10;99.90;;;;;;5034940;28;20059;-90
2021/12/04 12:54:53;;;;;;;10.30;9.15;;;2.20;99.90;;;;;;5036033;28;20033;-92
2021/12/04 12:57:25;;;;;;;11.02;9.07;;;2.10;99.90;;;;;;5042358;28;20108;-93
2021/12/04 13:14:28;;;;;;;10.25;9.20;;;2.10;99.90;;;;;;5056938;28;20043;-90
2021/12/04 13:16:59;;;;;;;10.90;9.18;;;2.10;99.90;;;;;;5055786;28;20017;-90
2021/12/04 13:19:26;;;;;;;10.75;9.68;;;2.10;99.90;;;;;;5021734;28;20048;-91
2021/12/04 13:21:56;;;;;;;11.82;9.40;;;2.10;99.90;;;;;;5052038;28;20033;-92
2021/12/04 13:24:29;;;;;;;10.15;9.15;;;2.10;99.90;;;;;;5051196;28;20029;-93
2021/12/04 13:26:56;;;;;;;11.23;9.95;;;2.10;99.90;;;;;;5044211;28;20108;-91
2021/12/04 13:29:25;;;;;;;14.05;9.68;;;2.10;99.90;;;;;;5026002;28;20036;-92
2021/12/04 13:31:55;;;;;;;10.27;9.27;;;2.00;99.90;;;;;;5029598;28;20036;-93
2021/12/04 13:34:27;;;;;;;11.35;9.60;;;2.10;99.90;;;;;;5042550;28;20053;-93
2021/12/04 13:36:54;;;;;;;12.63;11.07;;;2.00;99.90;;;;;;5041546;28;20540;-93
2021/12/04 13:39:21;;;;;;;10.68;9.57;;;2.10;99.90;;;;;;5038483;28;20365;-93
2021/12/04 13:41:49;;;;;;;11.25;10.07;;;2.10;99.90;;;;;;5034249;28;20021;-93
2021/12/04 13:44:19;;;;;;;11.27;10.10;;;2.00;99.90;;;;;;5052062;28;20017;-92
2021/12/04 13:46:47;;;;;;;10.00;9.00;;;2.00;99.90;;;;;;5035713;28;20123;-92
2021/12/04 13:49:17;;;;;;;11.48;10.25;;;1.90;99.90;;;;;;5035373;28;20033;-93
2021/12/04 13:52:03;;;;;;;11.25;10.23;;;2.00;99.90;;;;;;5038507;28;20440;-93
2021/12/04 13:54:32;;;;;;;11.60;10.50;;;2.00;99.90;;;;;;5025083;28;20021;-91
2021/12/04 13:56:58;;;;;;;13.35;11.30;;;2.00;99.90;;;;;;5039001;28;20029;-91
2021/12/04 13:59:26;;;;;;;13.05;10.60;;;1.90;99.90;;;;;;5024275;28;20500;-92
2021/12/04 14:01:53;;;;;;;13.95;11.45;;;1.90;99.90;;;;;;5052062;28;20037;-92
2021/12/04 14:04:20;;;;;;;13.10;11.18;;;1.90;99.90;;;;;;5025199;28;20641;-89
2021/12/04 14:06:52;;;;;;;12.30;11.10;;;1.90;99.90;;;;;;5047717;28;20025;-92
2021/12/04 14:09:18;;;;;;;12.90;11.65;;;1.90;99.90;;;;;;5028527;28;20021;-92
2021/12/04 14:11:46;;;;;;;12.48;11.18;;;1.90;99.90;;;;;;5040175;28;20036;-91
2021/12/04 14:14:21;;;;;;;12.07;10.95;;;1.90;99.90;;;;;;5038284;28;20884;-92
2021/12/04 14:16:51;;;;;;;11.23;10.02;;;1.90;99.90;;;;;;5040246;28;20021;-91
2021/12/04 14:19:21;;;;;;;11.15;9.90;;;1.90;99.90;;;;;;5034192;28;20039;-91
2021/12/04 14:22:10;;;;;;;13.70;11.07;;;1.90;99.90;;;;;;5043291;28;20034;-91
2021/12/04 14:24:50;;;;;;;12.27;10.65;;;1.90;99.90;;;;;;5049424;28;20021;-93
2021/12/04 14:27:29;;;;;;;14.55;10.73;;;1.90;99.90;;;;;;5043898;28;20096;-92
2021/12/04 14:30:09;;;;;;;12.20;11.00;;;1.90;99.90;;;;;;5030982;28;20021;-92
2021/12/04 14:32:43;;;;;;;11.43;10.32;;;1.90;99.90;;;;;;5040139;28;21461;-92
2021/12/04 14:35:15;;;;;;;13.07;11.77;;;1.90;99.90;;;;;;5030505;28;20017;-92
2021/12/04 14:37:43;;;;;;;12.82;11.52;;;1.80;99.90;;;;;;5036685;28;20376;-91
2021/12/04 14:40:15;;;;;;;12.75;11.45;;;1.80;99.90;;;;;;5052732;28;20045;-91
2021/12/04 14:42:42;;;;;;;10.85;9.82;;;1.80;99.90;;;;;;5032310;28;20021;-91
2021/12/04 14:45:23;;;;;;;14.18;11.95;;;1.80;99.90;;;;;;5049447;28;20048;-91
2021/12/04 14:47:56;;;;;;;13.48;12.07;;;1.80;99.90;;;;;;5035599;28;20036;-92
2021/12/04 14:50:23;;;;;;;13.60;11.38;;;1.80;99.90;;;;;;5042920;28;20116;-91
2021/12/04 14:52:56;;;;;;;12.77;11.45;;;1.80;99.90;;;;;;5049102;28;20032;-91
2021/12/04 14:55:36;;;;;;;12.88;10.85;;;1.80;99.90;;;;;;5037845;28;20040;-91
2021/12/04 14:58:11;;;;;;;14.95;13.35;;;1.80;99.90;;;;;;5036683;28;20026;-91
2021/12/04 15:00:54;;;;;;;12.88;11.20;;;1.80;99.90;;;;;;5036662;28;20108;-90
2021/12/04 15:03:44;;;;;;;14.80;11.75;;;1.80;99.90;;;;;;5056213;28;20029;-94
2021/12/04 15:06:14;;;;;;;14.50;12.77;;;1.70;99.90;;;;;;5057320;28;20504;-91
2021/12/04 15:08:46;;;;;;;14.05;12.50;;;1.70;99.90;;;;;;5040472;28;20033;-91
2021/12/04 15:11:16;;;;;;;13.52;12.15;;;1.70;99.90;;;;;;5054533;28;20114;-91
2021/12/04 15:13:56;;;;;;;18.00;13.68;;;1.70;99.90;;;;;;5034418;28;20025;-91
2021/12/04 15:16:33;;;;;;;15.77;12.30;;;1.70;99.90;;;;;;5042080;28;20041;-91
2021/12/04 15:19:41;;;;;;;18.58;13.63;;;1.70;99.90;;;;;;5039850;28;20405;-91
2021/12/04 15:22:21;;;;;;;18.50;14.20;;;1.70;99.90;;;;;;5029287;28;20666;-91
2021/12/04 15:24:48;;;;;;;17.25;13.10;;;1.70;99.90;;;;;;5028552;28;20029;-91
2021/12/04 15:27:18;;;;;;;22.77;14.52;;;1.70;99.90;;;;;;5036432;28;20111;-91
2021/12/04 15:29:46;;;;;;;17.67;14.32;;;1.70;99.90;;;;;;5034269;28;20121;-92
2021/12/04 15:32:15;;;;;;;23.77;15.57;;;1.70;99.90;;;;;;5063523;28;20048;-89
2021/12/04 15:34:51;;;;;;;19.23;14.10;;;1.70;99.90;;;;;;5036427;28;20025;-92
2021/12/04 15:37:26;;;;;;;21.30;15.02;;;1.70;99.90;;;;;;5035784;28;20563;-90
2021/12/04 15:39:53;;;;;;;24.83;15.50;;;1.70;99.90;;;;;;5033811;28;20040;-92
2021/12/04 15:42:32;;;;;;;27.45;15.57;;;1.70;99.90;;;;;;5034990;28;20396;-91
2021/12/04 15:48:26;;;;;;;23.83;15.63;;;1.60;99.90;;;;;;5055256;28;20033;-92
2021/12/04 15:50:47;;;;;;;23.45;15.75;;;1.70;99.90;;;;;;5047580;28;20029;-92
2021/12/04 15:53:14;;;;;;;22.45;16.00;;;1.60;99.90;;;;;;5053623;28;20374;-91
2021/12/04 15:55:47;;;;;;;27.80;16.48;;;1.60;99.90;;;;;;5036233;28;20100;-91